KGIF/GIF METAR and TAF weather

Enter ICAO airport designator
Station Type Date Time Source
KGIF METAR 2019/02/20 06:53 UTC NOAA

KGIF 200653Z AUTO 12008KT 10SM FEW006 23/21 A3014 RMK AO2 SLP203 T02280211


Station Type Date Time Source
KGIF Decoded METAR 2019/02/20 06:53 UTC NOAA

WINTER HAVENS GILBERT AIRPORT , FL, United States (KGIF) 28-04N 81-45W 43M
Feb 20, 2019 - 01:53 AM EST / 2019.02.20 0653 UTC
Wind: from the ESE (120 degrees) at 9 MPH (8 KT):0
Visibility: 10 mile(s):0
Sky conditions: mostly clear
Temperature: 73.0 F (22.8 C)
Dew Point: 70.0 F (21.1 C)
Relative Humidity: 90%
Pressure (altimeter): 30.14 in. Hg (1020 hPa)
ob: KGIF 200653Z AUTO 12008KT 10SM FEW006 23/21 A3014 RMK AO2 SLP203 T02280211
cycle: 7

Station Type Date Time Source
KGIF TAF UTC NOAA

Error!


Example: see airport list